Metar Cercanos

 

LEPA - Palma De Mallorc, Spain
Distance from station: ONO 38km
Actualización: 17/10/2018 10:00
Few Clouds
Few Clouds
 Viento del calm
Viento: Calma
Temperatura: 18°C
Rocío: 16°C
Humedad: 88%
Barómetro: 1014 hPa
Clouds: Few Clouds
Visibility: 10 km
Cloud details: Few Clouds 549 m
Few Clouds 762 m
2018/10/17 08:00 LEPA 170800Z 00000KT 9999 FEW018 FEW025TCU 18/16 Q1014 NOSIG
LEMH - Mahon/Menorca Is, Spain
Distance from station: ENE 105km
Actualización: 17/10/2018 10:00
Few Clouds
Few Clouds
 Viento del NNE
Viento: NNE 11 km/h
Temperatura: 20°C
Rocío: 17°C
Humedad: 83%
Barómetro: 1013 hPa
Clouds: Few Clouds
Visibility: 10 km
Cloud details: Few Clouds 579 m
Few Clouds 671 m
2018/10/17 08:00 LEMH 170800Z 03006KT 360V060 9999 FEW019 FEW022TCU 20/17 Q1013
 
LEIB - Ibiza/Es Codola, Spain
Distance from station: OSO 165km
Actualización: 17/10/2018 10:00
Parcialmente nuboso
Parcialmente nuboso
 Viento del NNE
Viento: NNE 13 km/h
Temperatura: 21°C
Rocío: 16°C
Humedad: 73%
Barómetro: 1014 hPa
Clouds: Parcialmente nuboso
Visibility: 10 km
Cloud details: Parcialmente nuboso 914 m
2018/10/17 08:00 LEIB 170800Z 03007KT 360V080 9999 SCT030TCU 21/16 Q1014 NOSIG
LEBL - Barcelona Airpor, Spain
Distance from station: NNO 225km
Actualización: 17/10/2018 10:00
Few Clouds
Few Clouds
 Viento del NO
Viento: NO 15 km/h
Temperatura: 17°C
Rocío: 14°C
Humedad: 83%
Barómetro: 1016 hPa
Clouds: Few Clouds
Visibility: 10 km
Cloud details: Few Clouds 1067 m
2018/10/17 08:00 LEBL 170800Z 32008KT 9999 FEW035 17/14 Q1016 NOSIG
 
LEVC - Valencia (civ/Mi, Spain
Distance from station: NO 188km
Actualización: 17/10/2018 10:00
Few Clouds
Few Clouds
 Viento del ONO
Viento: ONO 9 km/h
Temperatura: 18°C
Rocío: 12°C
Humedad: 68%
Barómetro: 1017 hPa
Clouds: Few Clouds
Visibility: 10 km
Cloud details: Few Clouds 914 m
2018/10/17 08:00 LEVC 170800Z 29005KT 250V320 9999 FEW030 18/12 Q1017 NOSIG
LEGE - Gerona/Costa Bra, Spain
Distance from station: N 276km
Actualización: 17/10/2018 10:00
Parcialmente nuboso
Parcialmente nuboso
 Viento del N
Viento: N 13 km/h
Temperatura: 17°C
Rocío: 16°C
Humedad: 94%
Barómetro: 1016 hPa
Clouds: Parcialmente nuboso
Visibility: 10 km
Cloud details: Few Clouds 853 m
Parcialmente nuboso 1463 m
2018/10/17 08:00 LEGE 170800Z 01007KT 340V050 9999 FEW028 SCT048 17/16 Q1016
 
LEAL - Alicante/El Alte, Spain
Distance from station: OSO 344km
Actualización: 17/10/2018 10:00
Lluvia débil, Showers, Muy nuboso
Lluvia débil, Showers, Muy nuboso
 Viento del ONO
Viento: ONO 13 km/h
Temperatura: 19°C
Rocío: 13°C
Humedad: 68%
Barómetro: 1015 hPa
Resumen: Lluvia débil, Showers
Clouds: Muy nuboso
Visibility: 10 km
Cloud details: Few Clouds 762 m
Muy nuboso 1981 m
2018/10/17 08:00 LEAL 170800Z 30007KT 270V330 9999 -SHRA FEW025TCU BKN065 19/13 Q1015 NOSIG
LEAM - Almeria Airport, Spain
Distance from station: SSO 56km
Actualización: 17/10/2018 10:00
Few Clouds
Few Clouds
 Viento del NO
Viento: NO 9 km/h
Temperatura: 20°C
Rocío: 11°C
Humedad: 56%
Barómetro: 1016 hPa
Clouds: Few Clouds
Visibility: 10 km
Cloud details: Few Clouds 366 m
2018/10/17 08:00 LEAM 170800Z 32005KT 280V010 9999 FEW012 20/11 Q1016
 
LEZG - Zaragoza (mil/Ci, Spain
Distance from station: NO 431km
Actualización: 17/10/2018 10:00
Few Clouds
Few Clouds
 Viento del O
Viento: O 7 km/h
Temperatura: 14°C
Rocío: 11°C
Humedad: 82%
Barómetro: 1018 hPa
Clouds: Few Clouds
Visibility: 10 km
Cloud details: Few Clouds 2591 m
2018/10/17 08:00 LEZG 170800Z 28004KT 240V300 9999 FEW085 14/11 Q1018
LEMD - Madrid/Barajas, Spain
Distance from station: ONO 234km
Actualización: 17/10/2018 10:00
Despejado
Despejado
 Viento del varies
Viento: varies 2 km/h
Temperatura: 11°C
Rocío: 9°C
Humedad: 88%
Barómetro: 1019 hPa
Resumen: Despejado
Visibility: greater than 10 km
2018/10/17 08:00 LEMD 170800Z VRB01KT CAVOK 11/09 Q1019 NOSIG
 
LEGR - Granada Airport, Spain
Distance from station: OSO 62km
Actualización: 17/10/2018 10:00
Niebla, Cubierto
Niebla, Cubierto
 Viento del calm
Viento: Calma
Temperatura: 11°C
Rocío: 10°C
Humedad: 94%
Barómetro: 1019 hPa
Resumen: Niebla
Clouds: Cubierto
Visibility: 1 km
Cloud details: Cubierto 30 m
2018/10/17 08:00 LEGR 170800Z 00000KT 0500 R09/0650U FG VV001 11/10 Q1019
LEMG - Malaga (civ/Mil), Spain
Distance from station: OSO 227km
Actualización: 17/10/2018 10:00
Few Clouds
Few Clouds
 Viento del ONO
Viento: ONO 13 km/h
Temperatura: 17°C
Rocío: 14°C
Humedad: 83%
Barómetro: 1017 hPa
Clouds: Few Clouds
Visibility: 10 km
Cloud details: Few Clouds 914 m
2018/10/17 08:00 LEMG 170800Z 30007KT 9999 FEW030 17/14 Q1017 NOSIG
 
LEZL - Sevilla (civ/Mil, Spain
Distance from station: S 318km
Actualización: 17/10/2018 10:00
Despejado
Despejado
 Viento del NE
Viento: NE 4 km/h
Temperatura: 17°C
Rocío: 14°C
Humedad: 83%
Barómetro: 1017 hPa
Resumen: Despejado
Visibility: greater than 10 km
2018/10/17 08:00 LEZL 170800Z 05002KT CAVOK 17/14 Q1017 NOSIG
LEVT - Vitoria, Spain
Distance from station: NO 226km
Actualización: 17/10/2018 10:00
Muy nuboso
Muy nuboso
 Viento del calm
Viento: Calma
Temperatura: 10°C
Rocío: 10°C
Humedad: 100%
Barómetro: 1019 hPa
Clouds: Muy nuboso
Visibility: 6 km
Cloud details: Few Clouds 61 m
Muy nuboso 152 m
2018/10/17 08:00 LEVT 170800Z 00000KT 6000 FEW002 BKN005 10/10 Q1019
 
LEBB - Bilbao/Sondica, Spain
Distance from station: NNO 235km
Actualización: 17/10/2018 10:00
Few Clouds
Few Clouds
 Viento del ESE
Viento: ESE 7 km/h
Temperatura: 13°C
Rocío: 12°C
Humedad: 94%
Barómetro: 1018 hPa
Clouds: Few Clouds
Visibility: 10 km
Cloud details: Few Clouds 427 m
2018/10/17 08:00 LEBB 170800Z 11004KT 070V150 9999 FEW014 13/12 Q1018 NOSIG
LESO - San Sebastian/Fu, Spain
Distance from station: N 231km
Actualización: 17/10/2018 10:00
Muy nuboso
Muy nuboso
 Viento del varies
Viento: varies 2 km/h
Temperatura: 16°C
Rocío: 14°C
Humedad: 88%
Barómetro: 1018 hPa
Clouds: Muy nuboso
Visibility: 10 km
Cloud details: Few Clouds 305 m
Parcialmente nuboso 671 m
Muy nuboso 1372 m
2018/10/17 08:00 LESO 170800Z VRB01KT 9999 FEW010 SCT022 BKN045 16/14 Q1018
 
LEVD - Valladolid(Mil/C, Spain
Distance from station: ONO 239km
Actualización: 17/10/2018 10:00
Nearby fog, Parcialmente nuboso
Nearby fog, Parcialmente nuboso
 Viento del varies
Viento: varies 2 km/h
Temperatura: 10°C
Rocío: 9°C
Humedad: 94%
Barómetro: 1019 hPa
Resumen: Nearby Fog
Clouds: Parcialmente nuboso
Visibility: 6 km
2018/10/17 08:00 LEVD 170800Z VRB01KT 6000 VCFG NSC 10/09 Q1019
LESA - Salamanca (civ/M, Spain
Distance from station: ONO 349km
Actualización: 17/10/2018 10:00
Niebla, Cubierto
Niebla, Cubierto
 Viento del calm
Viento: Calma
Temperatura: 6°C
Rocío: 6°C
Humedad: 100%
Barómetro: 1019 hPa
Resumen: Niebla
Clouds: Cubierto
Visibility: 0 km
Cloud details: Cubierto 30 m
2018/10/17 08:00 LESA 170800Z 00000KT 0100 R21/0200N FG VV001 06/06 Q1019
 
LEXJ - Santander/Paraya, Spain
Distance from station: NNO 247km
Actualización: 17/10/2018 10:00
Mist, Few clouds
Mist, Few clouds
 Viento del varies
Viento: varies 2 km/h
Temperatura: 13°C
Rocío: 13°C
Humedad: 100%
Barómetro: 1018 hPa
Resumen: Mist
Clouds: Few Clouds
Visibility: 5 km
Cloud details: Few Clouds 610 m
2018/10/17 08:00 LEXJ 170800Z VRB01KT 4900 BR FEW020 13/13 Q1018
LEAS - Asturias/Aviles, Spain
Distance from station: NO 214km
Actualización: 17/10/2018 10:00
Few Clouds
Few Clouds
 Viento del SO
Viento: SO 11 km/h
Temperatura: 12°C
Rocío: 11°C
Humedad: 94%
Barómetro: 1017 hPa
Clouds: Few Clouds
Visibility: 9 km
Cloud details: Few Clouds 1463 m
2018/10/17 08:00 LEAS 170800Z 23006KT 9000 FEW048 12/11 Q1017 NOSIG
 
LECO - La Coruna/Alvedr, Spain
Distance from station: ONO 222km
Actualización: 17/10/2018 10:00
Few Clouds
Few Clouds
 Viento del SSE
Viento: SSE 6 km/h
Temperatura: 12°C
Rocío: 11°C
Humedad: 94%
Barómetro: 1017 hPa
Clouds: Few Clouds
Visibility: 8 km
Cloud details: Few Clouds 213 m
2018/10/17 08:00 LECO 170800Z 15003KT 8000 FEW007 12/11 Q1017 NOSIG
LEVX - Vigo/Peinador, Spain
Distance from station: O 214km
Actualización: 17/10/2018 10:00
Niebla, Cubierto
Niebla, Cubierto
 Viento del SO
Viento: SO 9 km/h
Temperatura: 11°C
Rocío: 11°C
Humedad: 100%
Barómetro: 1018 hPa
Resumen: Niebla
Clouds: Cubierto
Visibility: 0 km
Cloud details: Cubierto 30 m
2018/10/17 08:00 LEVX 170800Z 23005KT 0150 R19/0175N R01/0150N FG VV001 11/11 Q1018 TEMPO 1500 BCFG